Time;durP1;ratioP1;P1;durP2;ratioP2;P2;SDS_P1;SDS_P2;PMS_P1;PMS_P2;Temp;Humidity;BMP_temperature;BMP_pressure;BME280_temperature;BME280_humidity;BME280_pressure;Samples;Min_cycle;Max_cycle;Signal;HPM_P1;HPM_P2
2022/08/17 00:02:35;;;;;;;17.48;13.35;;;;;;;19.22;75.67;99724.45;1944158;91;33145;-68
2022/08/17 00:05:49;;;;;;;15.40;12.78;;;;;;;19.20;75.58;99724.25;1944486;91;29197;-72
2022/08/17 00:09:01;;;;;;;14.98;13.40;;;;;;;19.17;75.62;99723.18;1944577;91;27970;-67
2022/08/17 00:12:05;;;;;;;20.32;13.03;;;;;;;19.13;75.71;99729.41;1970955;89;28658;-67
2022/08/17 00:15:11;;;;;;;18.00;14.18;;;;;;;19.10;75.87;99734.64;1990243;89;31207;-71
2022/08/17 00:18:15;;;;;;;15.00;13.32;;;;;;;19.08;76.03;99731.70;1989595;89;33026;-68
2022/08/17 00:21:21;;;;;;;17.83;14.47;;;;;;;19.04;76.00;99728.42;1990368;89;29092;-67
2022/08/17 00:24:23;;;;;;;18.50;14.80;;;;;;;19.01;76.12;99719.73;1990433;89;27949;-67
2022/08/17 00:27:25;;;;;;;25.12;16.00;;;;;;;18.87;76.21;99701.47;1990083;89;28686;-68
2022/08/17 00:30:28;;;;;;;15.20;13.32;;;;;;;18.88;76.24;99703.70;1975645;87;31093;-68
2022/08/17 00:33:31;;;;;;;21.33;15.20;;;;;;;18.94;76.37;99717.58;2032760;84;33156;-69
2022/08/17 00:36:33;;;;;;;16.77;15.03;;;;;;;18.91;76.37;99716.98;2098067;84;29126;-68
2022/08/17 00:39:36;;;;;;;22.52;15.25;;;;;;;18.88;76.60;99714.56;2094115;84;27711;-69
2022/08/17 00:42:38;;;;;;;20.12;14.30;;;;;;;18.85;76.58;99720.27;2057275;84;28680;-69
2022/08/17 00:45:41;;;;;;;17.55;14.43;;;;;;;18.82;76.60;99726.34;2097894;84;31039;-72
2022/08/17 00:48:44;;;;;;;18.75;15.53;;;;;;;18.80;76.76;99723.42;2097913;84;32814;-73
2022/08/17 00:52:05;;;;;;;18.42;14.68;;;;;;;18.78;76.96;99725.42;2097803;84;29109;-69
2022/08/17 00:55:08;;;;;;;20.37;15.72;;;;;;;18.77;76.79;99730.48;2098022;84;27885;-70
2022/08/17 00:58:10;;;;;;;17.42;14.10;;;;;;;18.76;76.91;99731.48;2094233;84;28655;-69
2022/08/17 01:01:13;;;;;;;17.42;14.68;;;;;;;18.74;77.00;99728.93;2097865;84;31091;-72
2022/08/17 01:04:17;;;;;;;16.75;14.90;;;;;;;18.73;77.14;99729.05;2097860;84;32978;-68
2022/08/17 01:07:22;;;;;;;20.65;15.35;;;;;;;18.72;77.04;99727.34;2098206;84;29026;-68
2022/08/17 01:10:35;;;;;;;20.97;15.65;;;;;;;18.70;77.18;99734.80;2098340;84;28039;-72
2022/08/17 01:13:42;;;;;;;18.80;16.05;;;;;;;18.68;77.25;99733.08;2097227;84;28676;-70
2022/08/17 01:16:44;;;;;;;18.67;15.25;;;;;;;18.66;77.30;99737.78;2094011;84;31150;-71
2022/08/17 01:19:46;;;;;;;17.60;15.68;;;;;;;18.64;77.25;99738.42;2097786;84;33018;-70
2022/08/17 01:22:48;;;;;;;16.62;14.25;;;;;;;18.62;77.30;99731.41;2071953;84;29053;-72
2022/08/17 01:25:57;;;;;;;21.15;16.07;;;;;;;18.59;77.37;99727.65;2098023;84;27729;-72
2022/08/17 01:29:01;;;;;;;18.27;16.48;;;;;;;18.57;77.49;99727.77;2097846;84;28662;-69
2022/08/17 01:32:09;;;;;;;18.62;15.28;;;;;;;18.56;77.63;99735.55;2097677;84;31021;-70
2022/08/17 01:35:19;;;;;;;18.45;15.58;;;;;;;18.54;77.61;99736.19;2086133;84;33091;-68
2022/08/17 01:38:23;;;;;;;18.60;15.40;;;;;;;18.51;77.70;99730.55;2097657;84;29108;-70
2022/08/17 01:41:26;;;;;;;18.17;15.40;;;;;;;18.49;77.69;99732.55;2097959;84;27831;-68
2022/08/17 01:44:29;;;;;;;23.12;16.17;;;;;;;18.48;77.80;99729.98;2098079;84;28652;-67
2022/08/17 01:47:31;;;;;;;21.75;15.85;;;;;;;18.44;77.80;99724.00;2072077;84;31144;-69
2022/08/17 01:50:36;;;;;;;20.90;16.57;;;;;;;18.43;77.96;99716.86;2097865;84;32933;-67
2022/08/17 01:53:49;;;;;;;24.27;17.15;;;;;;;18.41;78.12;99722.92;2090484;84;29037;-71
2022/08/17 01:56:57;;;;;;;20.92;16.80;;;;;;;18.41;78.14;99728.83;2090370;84;27963;-72
2022/08/17 02:00:06;;;;;;;21.57;17.75;;;;;;;18.39;78.28;99731.70;2098024;84;28703;-67
2022/08/17 02:03:09;;;;;;;20.00;17.50;;;;;;;18.37;78.36;99729.10;2098205;84;31080;-66
2022/08/17 02:06:11;;;;;;;22.77;17.20;;;;;;;18.35;78.47;99726.19;2098301;84;33000;-70
2022/08/17 02:09:13;;;;;;;19.05;15.63;;;;;;;18.32;78.57;99729.17;2098177;84;29028;-67
2022/08/17 02:12:16;;;;;;;19.20;16.90;;;;;;;18.29;78.47;99727.61;2098324;84;27493;-67
2022/08/17 02:15:21;;;;;;;20.52;16.97;;;;;;;18.27;78.50;99726.05;2093141;84;28867;-72
2022/08/17 02:18:30;;;;;;;21.27;17.00;;;;;;;18.24;78.61;99719.03;2093811;84;31080;-73
2022/08/17 02:21:33;;;;;;;19.60;17.20;;;;;;;18.21;78.61;99720.66;2072909;84;32978;-67
2022/08/17 02:24:36;;;;;;;24.82;18.12;;;;;;;18.17;78.67;99722.80;2072743;84;29012;-68
2022/08/17 02:27:39;;;;;;;24.43;17.05;;;;;;;18.15;78.69;99719.88;2072366;84;27906;-68
2022/08/17 02:30:46;;;;;;;24.20;16.67;;;;;;;18.12;78.72;99719.64;2097975;84;52855;-68
2022/08/17 02:33:48;;;;;;;21.05;16.97;;;;;;;18.10;78.76;99716.73;2101425;84;31062;-67
2022/08/17 02:36:52;;;;;;;19.25;17.25;;;;;;;18.07;78.84;99720.58;2101094;84;33124;-67
2022/08/17 02:39:59;;;;;;;22.50;17.55;;;;;;;18.04;78.88;99715.44;2101675;84;29015;-68
2022/08/17 02:42:58;;;;;;;27.30;17.17;;;;;;;18.00;78.92;99713.98;2101595;84;27769;-68
2022/08/17 02:46:00;;;;;;;21.60;17.12;;;;;;;17.96;78.84;99711.16;2101917;84;28644;-68
2022/08/17 02:49:05;;;;;;;22.85;17.32;;;;;;;17.90;78.88;99707.16;2101678;84;30993;-69
2022/08/17 02:52:07;;;;;;;;;;;;;;;17.90;79.03;99710.73;2105234;84;33011;-68
2022/08/17 02:55:26;;;;;;;20.75;16.45;;;;;;;17.88;79.02;99719.98;2101392;84;29061;-69
2022/08/17 02:58:28;;;;;;;22.75;17.55;;;;;;;17.83;79.00;99719.05;2100191;83;27923;-68
2022/08/17 03:01:30;;;;;;;20.70;15.85;;;;;;;17.79;79.29;99720.30;2101795;84;28637;-69
2022/08/17 03:04:37;;;;;;;21.87;16.57;;;;;;;17.76;79.35;99729.58;2098838;84;31290;-70
2022/08/17 03:07:39;;;;;;;22.87;16.40;;;;;;;17.73;79.37;99736.62;2101838;84;33055;-66
2022/08/17 03:10:42;;;;;;;21.73;15.45;;;;;;;17.70;79.49;99734.20;2101804;84;29002;-71
2022/08/17 03:13:44;;;;;;;24.30;17.92;;;;;;;17.68;79.53;99735.31;2101889;84;27853;-68
2022/08/17 03:16:46;;;;;;;21.02;16.05;;;;;;;17.66;79.75;99737.30;2079586;84;28650;-68
2022/08/17 03:19:48;;;;;;;19.85;16.25;;;;;;;17.65;79.71;99743.23;2100818;84;30974;-67
2022/08/17 03:22:54;;;;;;;18.67;15.53;;;;;;;17.64;79.70;99737.93;2101255;84;32799;-67
2022/08/17 03:25:56;;;;;;;17.45;15.65;;;;;;;17.61;79.68;99738.59;2101650;84;29004;-67
2022/08/17 03:28:58;;;;;;;20.52;15.93;;;;;;;17.63;79.82;99747.92;2101785;84;27605;-66
2022/08/17 03:32:02;;;;;;;18.80;16.02;;;;;;;17.61;79.94;99747.20;2101764;84;28631;-67
2022/08/17 03:35:05;;;;;;;23.47;17.48;;;;;;;17.61;79.98;99747.20;2102964;84;31042;-67
2022/08/17 03:38:10;;;;;;;20.97;16.73;;;;;;;17.60;80.11;99747.70;2101899;84;32994;-68
2022/08/17 03:41:12;;;;;;;19.67;15.98;;;;;;;17.59;80.08;99751.89;2078911;84;29039;-67
2022/08/17 03:44:14;;;;;;;20.75;16.15;;;;;;;17.58;80.08;99748.81;2102028;84;27598;-66
2022/08/17 03:57:36;;;;;;;19.30;15.45;;;;;;;17.57;80.33;99761.52;2098641;84;30152;-71
2022/08/17 04:00:42;;;;;;;17.53;15.70;;;;;;;17.58;80.38;99760.52;2102277;84;27802;-68
2022/08/17 04:03:43;;;;;;;18.45;15.08;;;;;;;17.58;80.40;99757.81;2102037;84;28660;-66
2022/08/17 04:06:45;;;;;;;16.97;14.38;;;;;;;17.61;80.38;99760.73;2101852;84;31061;-67
2022/08/17 04:09:48;;;;;;;16.65;14.47;;;;;;;17.64;80.41;99764.53;2101841;84;33047;-67
2022/08/17 04:12:53;;;;;;;17.50;14.55;;;;;;;17.67;80.58;99767.46;2101848;84;29030;-67
2022/08/17 04:15:58;;;;;;;21.77;16.73;;;;;;;17.71;80.57;99770.27;2102008;84;27867;-67
2022/08/17 04:18:59;;;;;;;18.70;14.63;;;;;;;17.74;80.66;99770.84;2101872;84;28669;-67
2022/08/17 04:22:02;;;;;;;18.55;15.65;;;;;;;17.80;80.66;99768.08;2101815;84;31023;-67
2022/08/17 04:25:19;;;;;;;16.87;15.15;;;;;;;17.81;80.76;99763.54;2069417;85;34453;-67
2022/08/17 04:28:27;;;;;;;18.57;15.48;;;;;;;17.90;80.73;99774.91;2069135;85;29075;-66
2022/08/17 04:31:35;;;;;;;21.68;16.10;;;;;;;17.98;80.83;99780.55;2071315;85;27945;-70
2022/08/17 04:34:37;;;;;;;22.05;14.98;;;;;;;18.06;80.90;99781.21;2060418;86;28655;-66
2022/08/17 04:37:39;;;;;;;18.23;15.58;;;;;;;18.14;81.04;99783.23;2060301;86;30994;-67
2022/08/17 04:44:03;;;;;;;19.10;15.53;;;;;;;18.31;81.10;99778.98;2060319;86;29012;-67
2022/08/17 04:47:06;;;;;;;20.65;15.30;;;;;;;18.43;81.21;99780.59;2060186;86;27858;-68
2022/08/17 04:50:27;;;;;;;19.32;16.10;;;;;;;18.53;81.31;99786.88;2060266;86;28620;-68
2022/08/17 04:53:35;;;;;;;21.37;15.53;;;;;;;18.64;81.42;99791.33;1965814;90;31088;-67
2022/08/17 04:56:41;;;;;;;23.12;16.17;;;;;;;18.78;81.55;99780.53;2012490;87;33071;-67
2022/08/17 04:59:43;;;;;;;23.80;17.00;;;;;;;18.97;81.84;99778.38;2027035;87;29024;-67
2022/08/17 05:02:53;;;;;;;23.57;18.87;;;;;;;19.34;82.20;99782.70;2023768;87;27958;-67
2022/08/17 05:06:00;;;;;;;23.35;17.90;;;;;;;19.72;82.15;99780.37;2024104;87;28652;-68
2022/08/17 05:09:05;;;;;;;23.47;18.15;;;;;;;20.13;81.71;99781.92;2024134;87;31051;-67
2022/08/17 05:12:07;;;;;;;25.68;19.42;;;;;;;20.47;81.44;99780.81;2027158;87;32973;-67
2022/08/17 05:15:15;;;;;;;23.25;17.25;;;;;;;20.78;80.92;99784.55;2026966;87;29043;-66
2022/08/17 05:18:17;;;;;;;23.57;17.27;;;;;;;21.07;80.64;99783.96;2027097;87;27636;-67
2022/08/17 05:21:22;;;;;;;28.32;16.95;;;;;;;21.35;80.18;99791.48;2026953;87;28612;-67
2022/08/17 05:24:24;;;;;;;20.43;16.32;;;;;;;21.60;79.77;99788.06;2026992;87;32093;-68
2022/08/17 05:27:26;;;;;;;22.65;16.50;;;;;;;21.83;79.30;99789.27;2026924;87;32912;-67
2022/08/17 05:30:28;;;;;;;22.13;16.15;;;;;;;22.05;78.71;99796.55;2026975;87;29005;-68
2022/08/17 05:33:35;;;;;;;20.02;15.60;;;;;;;22.28;78.36;99794.08;2026715;87;27716;-68
2022/08/17 05:36:39;;;;;;;23.00;15.48;;;;;;;22.49;77.48;99793.31;2027031;87;28736;-68
2022/08/17 05:39:41;;;;;;;17.55;15.72;;;;;;;22.70;77.01;99789.62;2026963;87;31027;-67
2022/08/17 05:42:43;;;;;;;20.05;15.90;;;;;;;22.87;76.19;99786.91;2026771;87;32945;-68
2022/08/17 05:45:55;;;;;;;18.95;15.23;;;;;;;23.00;75.79;99784.52;2026014;87;29025;-69
2022/08/17 05:49:03;;;;;;;54.25;21.00;;;;;;;23.15;75.02;99791.54;2026396;87;27734;-70
2022/08/17 05:52:13;;;;;;;23.40;16.50;;;;;;;23.27;74.62;99787.12;2025836;86;28885;-69
2022/08/17 05:55:52;;;;;;;23.38;14.55;;;;;;;23.33;74.41;99783.18;1995196;87;32497;-68
2022/08/17 05:59:14;;;;;;;19.05;14.35;;;;;;;23.44;73.57;99784.71;2026154;87;33052;-68
2022/08/17 06:03:05;;;;;;;14.85;13.40;;;;;;;23.59;73.37;99782.63;2026862;87;29115;-68
2022/08/17 06:06:49;;;;;;;18.40;13.65;;;;;;;23.79;73.12;99782.59;2026559;86;27709;-68
2022/08/17 06:10:24;;;;;;;20.65;13.48;;;;;;;24.05;72.34;99792.97;2026606;87;33133;-67
2022/08/17 06:14:16;;;;;;;15.68;11.97;;;;;;;24.30;71.55;99795.08;2002891;87;31041;-74
2022/08/17 06:17:24;;;;;;;17.15;13.98;;;;;;;24.51;70.76;99807.27;2026633;87;33451;-73
2022/08/17 06:20:31;;;;;;;17.02;12.47;;;;;;;24.73;70.46;99799.66;2021277;87;29093;-74
2022/08/17 06:23:54;;;;;;;25.43;13.53;;;;;;;25.06;70.27;99803.19;2003320;87;27904;-74
2022/08/17 06:27:02;;;;;;;14.60;12.68;;;;;;;25.36;69.39;99806.02;2026443;87;28761;-69
2022/08/17 06:30:26;;;;;;;18.52;14.53;;;;;;;25.79;69.16;99809.07;2024732;87;31027;-75
2022/08/17 06:33:33;;;;;;;16.48;13.22;;;;;;;26.23;68.44;99801.88;2026605;87;33790;-74
2022/08/17 06:36:59;;;;;;;14.95;11.78;;;;;;;26.78;67.58;99805.59;2026485;87;29078;-74
2022/08/17 06:40:31;;;;;;;16.07;11.38;;;;;;;27.28;65.79;99806.53;2026808;87;27909;-75
2022/08/17 06:43:41;;;;;;;12.70;10.85;;;;;;;27.79;65.75;99801.88;2022846;87;28839;-76
2022/08/17 06:46:52;;;;;;;15.50;11.73;;;;;;;28.49;65.09;99806.48;2023141;87;28012;-78
2022/08/17 06:50:09;;;;;;;15.75;11.30;;;;;;;29.06;63.54;99808.46;2026592;87;32992;-76
2022/08/17 06:53:16;;;;;;;12.35;11.03;;;;;;;29.52;62.34;99816.48;2026266;86;29031;-76
2022/08/17 06:56:31;;;;;;;12.53;10.90;;;;;;;29.95;60.92;99812.41;2026127;87;27982;-75
2022/08/17 06:59:42;;;;;;;16.15;10.98;;;;;;;30.35;60.38;99817.52;2026576;87;28653;-76
2022/08/17 07:03:14;;;;;;;12.53;10.03;;;;;;;30.78;59.15;99814.68;2026069;87;31067;-76
2022/08/17 07:06:24;;;;;;;12.78;10.80;;;;;;;31.15;58.01;99812.97;2026636;87;33279;-77
2022/08/17 07:09:37;;;;;;;12.80;11.50;;;;;;;31.57;57.73;99815.70;2023599;87;29146;-75
2022/08/17 07:12:43;;;;;;;14.07;10.37;;;;;;;31.88;56.46;99812.03;2026518;87;27935;-76
2022/08/17 07:15:50;;;;;;;12.95;10.38;;;;;;;32.19;55.45;99810.19;2024768;87;28698;-74
2022/08/17 07:18:56;;;;;;;12.78;10.53;;;;;;;32.45;54.74;99811.52;2023362;87;28088;-73
2022/08/17 07:22:38;;;;;;;11.65;9.28;;;;;;;32.61;53.65;99816.94;2023210;87;33039;-73
2022/08/17 07:25:48;;;;;;;13.50;9.45;;;;;;;32.81;53.43;99820.84;2023481;87;29211;-73
2022/08/17 07:28:57;;;;;;;12.47;9.93;;;;;;;33.11;53.08;99818.61;2023780;87;28030;-76
2022/08/17 07:32:04;;;;;;;15.13;10.78;;;;;;;33.39;52.48;99818.51;2023732;87;28669;-76
2022/08/17 07:35:38;;;;;;;9.50;8.63;;;;;;;33.61;51.65;99826.57;2023650;87;31023;-76
2022/08/17 07:38:47;;;;;;;9.68;8.70;;;;;;;33.81;50.40;99827.28;2023226;87;33019;-75
2022/08/17 07:41:55;;;;;;;10.58;9.08;;;;;;;33.95;49.34;99834.88;2020536;87;29080;-73
2022/08/17 07:48:17;;;;;;;12.65;8.85;;;;;;;34.03;49.15;99829.79;1977484;87;28044;-66
2022/08/17 07:48:20;;;;;;;16.15;10.03;;;;;;;34.18;48.55;99828.44;1998855;87;28584;-72
2022/08/17 07:51:50;;;;;;;9.20;8.30;;;;;;;34.29;48.17;99833.12;2023709;87;28031;-67
2022/08/17 07:54:55;;;;;;;9.93;8.95;;;;;;;34.36;47.29;99831.06;2135602;83;33012;-67
2022/08/17 07:58:02;;;;;;;9.98;8.30;;;;;;;34.47;47.09;99828.51;2135645;83;29049;-67
2022/08/17 08:01:11;;;;;;;9.23;8.35;;;;;;;34.54;45.77;99832.84;2135827;83;27698;-67
2022/08/17 08:04:29;;;;;;;9.68;8.10;;;;;;;34.69;45.94;99832.31;2135444;83;28696;-73
2022/08/17 08:07:56;;;;;;;7.45;6.83;;;;;;;34.84;45.25;99830.91;2135382;83;31084;-67
2022/08/17 08:11:14;;;;;;;9.38;7.30;;;;;;;35.04;44.90;99833.82;2138727;83;32961;-76
2022/08/17 08:14:31;;;;;;;9.03;8.10;;;;;;;35.15;44.12;99838.47;2135351;83;29223;-67
2022/08/17 08:18:02;;;;;;;13.45;8.68;;;;;;;35.24;43.41;99835.59;2135390;83;27950;-67
2022/08/17 08:21:19;;;;;;;9.50;6.95;;;;;;;35.20;42.78;99834.39;2135135;83;28683;-68
2022/08/17 08:24:57;;;;;;;8.88;7.67;;;;;;;35.28;43.46;99835.36;2135661;83;31057;-67
2022/08/17 08:28:26;;;;;;;9.80;7.35;;;;;;;35.37;42.93;99837.73;2135351;83;33064;-66
2022/08/17 08:31:57;;;;;;;9.73;8.38;;;;;;;35.46;42.35;99832.06;2135260;83;29082;-68
2022/08/17 08:35:16;;;;;;;8.53;7.70;;;;;;;35.55;41.73;99831.09;2078942;83;28037;-67
2022/08/17 08:38:32;;;;;;;9.48;7.87;;;;;;;35.47;41.50;99828.18;2078948;84;27918;-68
2022/08/17 08:42:12;;;;;;;7.03;4.92;;;;;;;35.56;40.95;99826.67;2079201;85;30940;-68
2022/08/17 08:45:34;;;;;;;9.05;7.50;;;;;;;35.55;40.68;99828.30;2079221;85;32991;-67
2022/08/17 08:49:08;;;;;;;8.08;7.37;;;;;;;35.60;40.08;99836.75;1947339;91;29078;-66
2022/08/17 08:52:38;;;;;;;11.10;7.97;;;;;;;35.62;39.42;99828.13;1947301;91;27873;-68
2022/08/17 08:56:09;;;;;;;10.15;8.20;;;;;;;35.52;39.41;99829.66;1939535;91;28291;-69
2022/08/17 08:59:31;;;;;;;5.08;4.12;;;;;;;35.38;37.97;99835.25;1939243;91;30826;-74
2022/08/17 09:03:15;;;;;;;;;;;;;;;34.99;38.87;99831.80;1941340;91;30024;-79
2022/08/17 09:06:44;;;;;;;11.35;7.42;;;;;;;34.66;38.70;99834.19;1938997;91;29121;-69
2022/08/17 09:09:58;;;;;;;9.10;8.20;;;;;;;34.42;38.93;99825.64;1940319;89;27876;-74
2022/08/17 09:13:25;;;;;;;5.15;4.50;;;;;;;34.23;38.72;99825.77;1979476;89;29341;-76
2022/08/17 09:16:54;;;;;;;8.28;7.58;;;;;;;33.97;38.94;99818.80;1986151;89;28008;-68
2022/08/17 09:20:41;;;;;;;9.43;7.72;;;;;;;33.95;39.74;99823.75;1983829;89;33942;-69
2022/08/17 09:24:14;;;;;;;10.23;7.62;;;;;;;33.95;39.46;99832.09;1986114;88;29097;-68
2022/08/17 09:27:57;;;;;;;8.35;6.30;;;;;;;33.88;39.87;99828.02;2064309;86;27921;-70
2022/08/17 09:31:15;;;;;;;11.00;7.70;;;;;;;33.82;38.21;99823.42;2092363;84;28717;-82
2022/08/17 09:34:33;;;;;;;14.53;7.62;;;;;;;33.69;39.01;99823.11;2091934;84;31067;-78
2022/08/17 09:37:44;;;;;;;11.43;6.08;;;;;;;33.57;38.96;99818.97;2095197;84;32977;-67
2022/08/17 09:41:09;;;;;;;5.03;4.62;;;;;;;33.52;38.56;99821.05;2091811;84;29090;-70
2022/08/17 09:44:38;;;;;;;6.85;6.17;;;;;;;33.39;39.16;99814.34;2095033;84;27651;-68
2022/08/17 09:47:52;;;;;;;5.22;4.67;;;;;;;33.23;39.19;99816.70;2095031;84;28694;-68
2022/08/17 09:51:12;;;;;;;9.73;5.80;;;;;;;33.10;38.24;99806.64;2092092;84;30580;-70
2022/08/17 09:54:28;;;;;;;9.48;6.85;;;;;;;32.95;38.37;99807.63;2113568;82;34224;-70
2022/08/17 09:57:54;;;;;;;8.93;6.85;;;;;;;32.80;38.91;99813.60;2129089;83;29082;-70
2022/08/17 10:01:02;;;;;;;4.37;3.10;;;;;;;32.67;38.70;99814.11;2125487;82;27834;-69
2022/08/17 10:04:31;;;;;;;6.33;5.10;;;;;;;32.52;37.63;99810.87;2129105;83;28664;-68
2022/08/17 10:07:54;;;;;;;7.90;7.17;;;;;;;32.34;38.14;99818.16;2129104;83;31018;-66
2022/08/17 10:12:14;;;;;;;10.18;7.72;;;;;;;32.23;38.91;99814.72;2118593;83;33124;-67
2022/08/17 10:14:44;;;;;;;7.75;7.05;;;;;;;32.16;39.63;99812.59;2129647;83;29031;-67
2022/08/17 10:18:18;;;;;;;8.35;4.33;;;;;;;31.97;38.00;99816.73;2125755;83;28014;-69
2022/08/17 10:28:12;;;;;;;9.45;5.65;;;;;;;31.74;37.99;99814.63;2084851;85;32892;-65
2022/08/17 10:31:22;;;;;;;5.30;4.03;;;;;;;31.65;37.73;99808.50;2084730;85;29183;-66
2022/08/17 10:34:38;;;;;;;3.40;3.10;;;;;;;31.55;38.24;99808.16;2084271;85;27972;-67
2022/08/17 10:37:53;;;;;;;6.17;5.67;;;;;;;31.55;38.08;99809.02;2085623;85;29186;-66
2022/08/17 10:41:25;;;;;;;10.90;7.40;;;;;;;31.55;37.43;99814.55;2085854;83;28029;-68
2022/08/17 10:44:49;;;;;;;12.18;7.78;;;;;;;31.51;38.81;99811.92;1982729;89;33039;-64
2022/08/17 10:48:08;;;;;;;10.63;7.50;;;;;;;31.58;38.65;99813.25;1982733;89;29078;-67
2022/08/17 10:51:36;;;;;;;9.03;8.08;;;;;;;31.70;39.51;99814.22;1982690;89;27907;-68
2022/08/17 10:54:56;;;;;;;7.35;5.87;;;;;;;31.78;38.56;99826.92;1976362;88;28729;-66
2022/08/17 10:58:23;;;;;;;12.33;7.97;;;;;;;31.87;38.78;99820.03;1972042;88;31131;-64
2022/08/17 11:01:42;;;;;;;8.63;7.78;;;;;;;32.00;38.78;99821.82;1972748;89;33102;-66
2022/08/17 11:05:02;;;;;;;8.95;7.30;;;;;;;32.09;39.04;99820.42;1972629;89;29245;-65
2022/08/17 11:08:42;;;;;;;8.38;7.58;;;;;;;32.19;38.73;99825.44;1972604;88;28026;-67
2022/08/17 11:12:16;;;;;;;7.00;6.30;;;;;;;32.28;38.93;99818.52;1972981;89;27907;-65
2022/08/17 11:15:49;;;;;;;8.63;7.60;;;;;;;32.36;39.28;99822.07;1972396;88;30951;-72
2022/08/17 11:19:10;;;;;;;15.40;13.90;;;;;;;32.32;39.02;99820.83;1980889;83;30442;-71
2022/08/17 11:22:56;;;;;;;9.38;8.58;;;;;;;32.30;38.81;99814.15;2097764;84;29300;-69
2022/08/17 11:26:11;;;;;;;8.13;7.33;;;;;;;32.16;39.02;99808.43;2078815;85;27886;-65
2022/08/17 11:29:26;;;;;;;8.23;7.50;;;;;;;32.15;38.96;99812.28;2050725;85;29952;-69
2022/08/17 11:32:49;;;;;;;7.97;7.17;;;;;;;32.16;38.96;99814.80;2078352;85;31239;-68
2022/08/17 11:36:12;;;;;;;10.65;8.18;;;;;;;32.24;39.35;99806.72;2061196;86;33020;-71
2022/08/17 11:39:43;;;;;;;8.83;8.03;;;;;;;32.32;39.68;99806.97;2061774;86;29068;-69
2022/08/17 11:43:26;;;;;;;8.38;7.58;;;;;;;32.46;39.47;99807.66;2061759;86;27917;-69
2022/08/17 11:53:51;;;;;;;7.15;6.45;;;;;;;32.49;38.58;99801.09;2062358;86;33608;-68
2022/08/17 11:56:52;;;;;;;8.63;7.72;;;;;;;32.45;38.67;99792.11;2042165;86;29187;-71
2022/08/17 12:00:10;;;;;;;7.80;6.85;;;;;;;32.36;37.97;99787.42;2064877;86;27933;-69
2022/08/17 12:03:36;;;;;;;8.25;7.22;;;;;;;32.28;38.72;99782.48;2101140;83;28837;-70
2022/08/17 12:06:50;;;;;;;6.90;6.08;;;;;;;32.16;38.17;99792.63;2104184;84;31029;-70
2022/08/17 12:09:56;;;;;;;6.17;4.10;;;;;;;32.06;39.02;99783.47;2123748;83;32976;-69
2022/08/17 12:13:17;;;;;;;8.43;7.25;;;;;;;32.01;39.36;99781.95;2122096;83;27957;-69
2022/08/17 12:16:21;;;;;;;9.03;7.87;;;;;;;31.99;39.54;99778.56;2042304;85;28023;-70
2022/08/17 12:19:32;;;;;;;7.53;6.92;;;;;;;31.93;39.30;99785.02;2064002;84;28618;-71
2022/08/17 12:22:54;;;;;;;5.20;4.70;;;;;;;31.82;38.45;99782.47;2041108;86;31206;-69
2022/08/17 12:26:18;;;;;;;6.17;3.77;;;;;;;31.78;39.25;99782.61;2055930;86;34603;-69
2022/08/17 12:29:20;;;;;;;9.55;6.78;;;;;;;31.67;38.95;99778.11;2057129;86;29066;-69
2022/08/17 12:32:26;;;;;;;6.15;5.47;;;;;;;31.63;38.55;99771.88;2059788;86;27319;-70
2022/08/17 12:35:37;;;;;;;5.83;4.90;;;;;;;31.54;37.65;99769.94;2035690;86;30043;-70
2022/08/17 12:38:40;;;;;;;5.72;5.20;;;;;;;31.49;38.68;99770.63;2059672;86;31351;-68
2022/08/17 12:41:47;;;;;;;3.77;3.37;;;;;;;31.39;39.20;99768.06;2072561;85;32897;-69
2022/08/17 12:44:50;;;;;;;5.15;4.60;;;;;;;31.31;39.43;99768.65;2075037;85;29156;-69
2022/08/17 12:48:06;;;;;;;4.37;3.98;;;;;;;31.24;39.65;99772.03;2075409;85;27679;-69
2022/08/17 12:51:10;;;;;;;4.65;4.25;;;;;;;31.18;39.72;99772.41;1987688;87;28781;-68
2022/08/17 12:54:42;;;;;;;3.47;3.17;;;;;;;31.14;39.36;99773.05;2024922;87;31049;-70
2022/08/17 12:57:54;;;;;;;4.47;4.17;;;;;;;31.07;38.82;99765.64;2022878;87;33432;-68
2022/08/17 13:01:09;;;;;;;4.45;3.27;;;;;;;31.07;38.82;99765.64;2022209;87;29041;-70
2022/08/17 13:04:13;;;;;;;4.22;3.83;;;;;;;31.05;39.26;99770.55;2096486;84;27706;-69
2022/08/17 13:07:27;;;;;;;;;;;;;;;31.01;39.89;99768.45;2143625;83;28654;-69
2022/08/17 13:10:38;;;;;;;3.83;3.52;;;;;;;31.00;39.61;99763.45;2137991;83;31430;-67
2022/08/17 13:13:54;;;;;;;4.83;4.28;;;;;;;31.00;40.02;99758.47;2138824;83;32981;-67
2022/08/17 13:17:07;;;;;;;6.12;5.53;;;;;;;31.00;40.23;99759.84;2139018;83;29093;-67
2022/08/17 13:20:13;;;;;;;5.33;4.75;;;;;;;30.97;39.50;99763.05;2103300;84;27810;-69
2022/08/17 13:23:20;;;;;;;6.40;5.60;;;;;;;30.99;39.67;99762.30;2079494;84;30707;-67
2022/08/17 13:26:29;;;;;;;5.97;4.60;;;;;;;31.00;39.70;99762.06;2102885;84;31010;-67
2022/08/17 13:29:47;;;;;;;6.87;6.37;;;;;;;31.02;40.22;99755.77;2105867;84;32978;-69
2022/08/17 13:32:55;;;;;;;6.80;6.10;;;;;;;31.03;40.01;99770.44;2105554;84;28004;-70
2022/08/17 13:36:08;;;;;;;6.95;6.30;;;;;;;31.01;40.21;99760.16;2105811;84;27907;-67
2022/08/17 13:39:26;;;;;;;7.97;6.53;;;;;;;31.02;39.58;99757.16;2103343;84;28652;-67
2022/08/17 13:42:45;;;;;;;5.35;4.90;;;;;;;31.02;39.29;99759.92;2102366;84;28003;-67
2022/08/17 13:45:51;;;;;;;8.55;6.60;;;;;;;31.06;39.70;99757.02;2102599;84;33033;-68
2022/08/17 13:49:04;;;;;;;4.47;4.08;;;;;;;31.07;39.59;99753.70;2105882;84;29022;-69
2022/08/17 13:52:13;;;;;;;5.78;4.65;;;;;;;31.02;39.49;99753.00;2099968;84;27822;-69
2022/08/17 13:55:23;;;;;;;8.60;6.58;;;;;;;31.00;39.47;99752.38;2098099;84;29077;-67
2022/08/17 13:58:34;;;;;;;4.50;3.40;;;;;;;30.99;38.65;99758.15;2094261;84;31183;-67
2022/08/17 14:01:48;;;;;;;7.17;6.55;;;;;;;31.00;39.32;99755.70;2094295;84;33642;-69
2022/08/17 14:04:54;;;;;;;8.10;6.60;;;;;;;30.99;38.85;99753.45;2093890;84;29056;-67
2022/08/17 14:08:08;;;;;;;6.15;5.37;;;;;;;30.96;38.93;99751.13;2094192;84;27885;-68
2022/08/17 14:11:10;;;;;;;6.78;6.12;;;;;;;30.90;39.17;99743.75;2097205;84;28665;-70
2022/08/17 14:14:21;;;;;;;4.85;4.45;;;;;;;30.85;38.80;99749.95;2093914;84;31023;-67
2022/08/17 14:17:28;;;;;;;5.05;4.33;;;;;;;30.89;39.11;99755.33;2092873;84;33035;-67
2022/08/17 14:20:31;;;;;;;7.87;6.30;;;;;;;30.90;39.18;99747.34;2097294;84;29044;-68
2022/08/17 14:23:43;;;;;;;6.87;6.35;;;;;;;30.90;38.61;99741.81;2094026;84;27897;-66
2022/08/17 14:26:51;;;;;;;4.90;4.50;;;;;;;30.92;38.29;99740.22;2093678;84;28872;-67
2022/08/17 14:30:01;;;;;;;8.48;4.67;;;;;;;30.94;38.91;99739.47;2094040;84;28141;-68
2022/08/17 14:33:21;;;;;;;7.33;6.03;;;;;;;30.92;38.70;99741.61;2094179;84;29908;-66
2022/08/17 14:36:20;;;;;;;5.60;5.12;;;;;;;30.88;38.30;99737.03;2093789;83;29026;-66
2022/08/17 14:39:24;;;;;;;;;;;;;;;30.87;38.58;99736.72;2097216;84;27884;-65
2022/08/17 14:42:30;;;;;;;9.20;5.40;;;;;;;30.81;39.04;99732.11;2097605;84;28660;-69
2022/08/17 14:45:36;;;;;;;5.40;4.90;;;;;;;30.81;39.04;99732.11;2094540;84;31243;-67
2022/08/17 14:48:45;;;;;;;3.55;3.00;;;;;;;30.82;38.74;99746.25;2094444;84;33028;-67
2022/08/17 14:51:57;;;;;;;6.45;5.85;;;;;;;30.78;39.20;99735.86;2094192;84;27924;-67
2022/08/17 14:55:05;;;;;;;4.85;4.45;;;;;;;30.72;39.16;99737.06;2090768;84;27867;-67
2022/08/17 14:58:11;;;;;;;6.15;5.15;;;;;;;30.71;39.65;99741.41;2084279;84;28688;-67
2022/08/17 15:01:17;;;;;;;5.30;4.08;;;;;;;30.66;39.29;99731.58;2060507;85;30914;-67
2022/08/17 15:04:21;;;;;;;7.50;4.00;;;;;;;30.64;39.23;99739.24;2084056;85;32966;-66
2022/08/17 15:07:25;;;;;;;;;;;;;;;30.63;39.51;99737.55;2086612;85;29031;-67
2022/08/17 15:10:29;;;;;;;5.40;4.57;;;;;;;30.63;38.70;99739.77;2084432;85;27953;-67
2022/08/17 15:13:32;;;;;;;2.95;2.75;;;;;;;30.64;39.29;99744.22;2087019;85;28660;-70
2022/08/17 15:16:36;;;;;;;7.93;6.47;;;;;;;30.59;39.46;99737.16;2081032;84;31002;-66
2022/08/17 15:19:41;;;;;;;;;;;;;;;30.59;38.29;99742.13;2083423;85;32935;-66
2022/08/17 15:22:54;;;;;;;5.05;4.62;;;;;;;30.66;37.98;99738.48;2080866;85;29442;-70
2022/08/17 15:25:58;;;;;;;5.83;5.03;;;;;;;30.68;38.59;99741.88;2084012;85;27723;-70